createdAt,value
2023-03-04T00:00:14.927Z,102610.38
2023-03-04T00:03:01.498Z,102611.25
2023-03-04T00:05:48.206Z,102611.25
2023-03-04T00:08:34.537Z,102606.22
2023-03-04T00:11:20.546Z,102612.34
2023-03-04T00:14:08.263Z,102608.66
2023-03-04T00:16:54.673Z,102616.88
2023-03-04T00:19:41.155Z,102617.19
2023-03-04T00:22:27.572Z,102613.03
2023-03-04T00:25:14.193Z,102616.97
2023-03-04T00:28:00.976Z,102609.97
2023-03-04T00:30:49.071Z,102614.03
2023-03-04T00:33:35.627Z,102609.75
2023-03-04T00:36:22.175Z,102606.97
2023-03-04T00:39:08.364Z,102608.91
2023-03-04T00:41:55.553Z,102605.81
2023-03-04T00:44:41.861Z,102606.56
2023-03-04T00:47:29.507Z,102604.72
2023-03-04T00:50:16.634Z,102617.41
2023-03-04T00:53:02.853Z,102613.41
2023-03-04T00:55:49.335Z,102613.75
2023-03-04T00:58:35.792Z,102611.28
2023-03-04T01:01:22.150Z,102614.63
2023-03-04T01:04:10.143Z,102615.56
2023-03-04T01:06:56.439Z,102609.34
2023-03-04T01:09:42.871Z,102615.47
2023-03-04T01:12:30.279Z,102613.97
2023-03-04T01:15:16.940Z,102610.44
2023-03-04T01:18:03.244Z,102612.41
2023-03-04T01:20:51.198Z,102601.38
2023-03-04T01:23:37.638Z,102604.19
2023-03-04T01:26:24.261Z,102601.84
2023-03-04T01:29:10.482Z,102606.03
2023-03-04T01:31:56.990Z,102604.97
2023-03-04T01:34:43.445Z,102596.00
2023-03-04T01:37:31.136Z,102595.38
2023-03-04T01:40:17.663Z,102593.16
2023-03-04T01:43:04.652Z,102584.09
2023-03-04T01:45:53.029Z,102580.03
2023-03-04T01:48:40.235Z,102577.16
2023-03-04T01:51:26.805Z,102576.16
2023-03-04T01:54:14.648Z,102567.13
2023-03-04T01:57:01.477Z,102567.72
2023-03-04T01:59:48.538Z,102559.50
2023-03-04T02:02:34.575Z,102566.28
2023-03-04T02:05:22.494Z,102557.22
2023-03-04T02:08:11.589Z,102556.72
2023-03-04T02:10:59.242Z,102557.59
2023-03-04T02:13:45.776Z,102544.47
2023-03-04T02:16:32.986Z,102539.00
2023-03-04T02:19:34.301Z,102538.16
2023-03-04T02:22:20.689Z,102546.31
2023-03-04T02:25:11.983Z,102542.31
2023-03-04T02:27:59.561Z,102541.91
2023-03-04T02:30:46.164Z,102533.44
2023-03-04T02:33:33.165Z,102533.84
2023-03-04T02:36:20.088Z,102533.19
2023-03-04T02:39:11.957Z,102531.47
2023-03-04T02:41:58.737Z,102527.63
2023-03-04T02:44:50.476Z,102524.41
2023-03-04T02:47:38.993Z,102515.59
2023-03-04T02:50:27.071Z,102519.88
2023-03-04T02:53:13.528Z,102518.91
2023-03-04T02:55:59.948Z,102519.66
2023-03-04T02:58:51.548Z,102513.94
2023-03-04T03:01:39.608Z,102522.75
2023-03-04T03:04:27.411Z,102517.50
2023-03-04T03:07:14.791Z,102521.13
2023-03-04T03:10:01.933Z,102514.06
2023-03-04T03:12:49.478Z,102515.25
2023-03-04T03:15:35.659Z,102519.31
2023-03-04T03:18:23.166Z,102513.19
2023-03-04T03:21:09.715Z,102508.44
2023-03-04T03:23:56.265Z,102507.81
2023-03-04T03:26:42.662Z,102508.69
2023-03-04T03:29:29.038Z,102501.59
2023-03-04T03:32:15.649Z,102504.38
2023-03-04T03:35:03.604Z,102499.00
2023-03-04T03:37:50.045Z,102503.94
2023-03-04T03:40:36.351Z,102504.28
2023-03-04T03:43:23.010Z,102491.94
2023-03-04T03:46:09.473Z,102500.00
2023-03-04T03:48:55.892Z,102499.22
2023-03-04T03:51:44.586Z,102493.75
2023-03-04T03:54:30.680Z,102495.47
2023-03-04T03:57:17.149Z,102493.75
2023-03-04T04:00:05.562Z,102501.69
2023-03-04T04:03:00.948Z,102505.13
2023-03-04T04:05:47.317Z,102497.94
2023-03-04T04:08:35.162Z,102500.97
2023-03-04T04:11:21.956Z,102504.38
2023-03-04T04:14:09.838Z,102502.69
2023-03-04T04:16:56.264Z,102506.56
2023-03-04T04:19:42.910Z,102513.97
2023-03-04T04:22:29.416Z,102511.19
2023-03-04T04:25:17.430Z,102507.66
2023-03-04T04:28:03.670Z,102507.66
2023-03-04T04:30:49.998Z,102506.56
2023-03-04T04:33:36.433Z,102502.50
2023-03-04T04:36:22.806Z,102498.97
2023-03-04T04:39:09.384Z,102513.97
2023-03-04T04:41:57.347Z,102507.66
2023-03-04T04:44:43.667Z,102510.66
2023-03-04T04:47:29.947Z,102509.72
2023-03-04T04:50:16.456Z,102510.38
2023-03-04T04:53:02.702Z,102507.34
2023-03-04T04:55:49.320Z,102497.69
2023-03-04T04:58:37.281Z,102498.66
2023-03-04T05:01:23.464Z,102509.28
2023-03-04T05:04:10.245Z,102500.50
2023-03-04T05:06:56.896Z,102503.94
2023-03-04T05:09:43.528Z,102499.41
2023-03-04T05:12:30.138Z,102500.59
2023-03-04T05:15:18.470Z,102500.72
2023-03-04T05:18:04.722Z,102501.56
2023-03-04T05:20:52.389Z,102496.72
2023-03-04T05:23:42.004Z,102501.34
2023-03-04T05:26:28.093Z,102502.97
2023-03-04T05:29:14.775Z,102496.50
2023-03-04T05:32:02.697Z,102500.38
2023-03-04T05:34:49.133Z,102499.28
2023-03-04T05:37:35.657Z,102501.22
2023-03-04T05:40:21.801Z,102500.28
2023-03-04T05:43:08.677Z,102501.13
2023-03-04T05:45:55.431Z,102499.28
2023-03-04T05:48:43.187Z,102496.28
2023-03-04T05:51:29.765Z,102492.31
2023-03-04T05:54:16.365Z,102495.88
2023-03-04T05:57:02.831Z,102503.28
2023-03-04T05:59:48.936Z,102489.78
2023-03-04T06:02:35.349Z,102497.97
2023-03-04T06:05:23.375Z,102494.28
2023-03-04T06:08:09.492Z,102492.47
2023-03-04T06:10:57.496Z,102494.00
2023-03-04T06:13:44.121Z,102492.91
2023-03-04T06:16:30.715Z,102485.16
2023-03-04T06:19:17.090Z,102488.06
2023-03-04T06:22:04.978Z,102484.28
2023-03-04T06:24:51.367Z,102494.06
2023-03-04T06:27:37.792Z,102492.97
2023-03-04T06:30:25.055Z,102487.84
2023-03-04T06:33:11.460Z,102487.22
2023-03-04T06:35:58.417Z,102489.34
2023-03-04T06:38:47.034Z,102488.38
2023-03-04T06:41:34.108Z,102484.91
2023-03-04T06:44:20.987Z,102493.63
2023-03-04T06:47:07.122Z,102483.75
2023-03-04T06:49:53.747Z,102489.13
2023-03-04T06:52:40.399Z,102485.44
2023-03-04T06:55:28.238Z,102481.59
2023-03-04T06:58:14.717Z,102483.78
2023-03-04T07:01:15.584Z,102481.19
2023-03-04T07:04:02.556Z,102491.69
2023-03-04T07:06:49.459Z,102484.25
2023-03-04T07:09:36.067Z,102491.53
2023-03-04T07:12:26.417Z,102490.84
2023-03-04T07:15:13.166Z,102494.63
2023-03-04T07:17:59.733Z,102494.03
2023-03-04T07:20:46.045Z,102494.66
2023-03-04T07:23:33.027Z,102491.56
2023-03-04T07:26:19.658Z,102494.16
2023-03-04T07:29:07.460Z,102495.13
2023-03-04T07:31:54.019Z,102496.31
2023-03-04T07:34:40.293Z,102497.81
2023-03-04T07:37:26.773Z,102496.13
2023-03-04T07:40:14.001Z,102497.97
2023-03-04T07:43:00.200Z,102494.56
2023-03-04T07:45:49.011Z,102497.78
2023-03-04T07:48:35.601Z,102504.25
2023-03-04T07:51:23.766Z,102502.19
2023-03-04T07:54:11.186Z,102511.00
2023-03-04T07:56:57.769Z,102498.81
2023-03-04T07:59:44.261Z,102498.81
2023-03-04T08:02:31.927Z,102507.06
2023-03-04T08:05:18.595Z,102505.63
2023-03-04T08:08:04.874Z,102506.72
2023-03-04T08:10:51.441Z,102515.78
2023-03-04T08:13:37.769Z,102512.75
2023-03-04T08:16:25.736Z,102522.63
2023-03-04T08:19:13.776Z,102518.50
2023-03-04T08:22:00.452Z,102523.59
2023-03-04T08:24:46.578Z,102526.28
2023-03-04T08:27:32.846Z,102526.53
2023-03-04T08:30:19.546Z,102530.81
2023-03-04T08:33:05.844Z,102530.59
2023-03-04T08:35:53.986Z,102537.44
2023-03-04T08:38:42.837Z,102524.44
2023-03-04T08:41:29.363Z,102531.03
2023-03-04T08:44:16.158Z,102528.97
2023-03-04T08:47:02.285Z,102534.06
2023-03-04T08:49:48.672Z,102530.31
2023-03-04T08:52:36.317Z,102527.16
2023-03-04T08:55:22.563Z,102537.59
2023-03-04T08:58:09.966Z,102534.88
2023-03-04T09:00:56.331Z,102535.97
2023-03-04T09:03:43.663Z,102526.09
2023-03-04T09:06:29.949Z,102521.88
2023-03-04T09:09:17.639Z,102515.47
2023-03-04T09:12:04.064Z,102517.66
2023-03-04T09:15:04.584Z,102519.09
2023-03-04T09:17:54.897Z,102517.00
2023-03-04T09:20:41.475Z,102512.41
2023-03-04T09:23:28.104Z,102513.81
2023-03-04T09:26:18.595Z,102518.81
2023-03-04T09:29:06.594Z,102520.34
2023-03-04T09:31:53.301Z,102517.91
2023-03-04T09:34:39.686Z,102522.59
2023-03-04T09:37:26.104Z,102524.28
2023-03-04T09:40:19.338Z,102518.38
2023-03-04T09:43:13.533Z,102511.84
2023-03-04T09:46:02.545Z,102513.22
2023-03-04T09:48:52.351Z,102507.16
2023-03-04T09:51:56.659Z,102508.69
2023-03-04T09:54:59.275Z,102509.69
2023-03-04T09:57:51.330Z,102511.59
2023-03-04T10:00:42.814Z,102513.25
2023-03-04T10:03:42.889Z,102503.56
2023-03-04T10:06:32.143Z,102504.47
2023-03-04T10:09:24.018Z,102509.59
2023-03-04T10:12:14.960Z,102496.84
2023-03-04T10:15:05.315Z,102502.03
2023-03-04T10:17:58.399Z,102501.03
2023-03-04T10:20:54.212Z,102509.09
2023-03-04T10:23:41.841Z,102504.34
2023-03-04T10:26:33.442Z,102497.38
2023-03-04T10:29:21.710Z,102507.22
2023-03-04T10:32:13.196Z,102500.16
2023-03-04T10:35:01.361Z,102496.59
2023-03-04T10:37:50.529Z,102489.44
2023-03-04T10:40:40.223Z,102495.03
2023-03-04T10:43:27.034Z,102478.75
2023-03-04T10:46:14.031Z,102487.84
2023-03-04T10:49:00.680Z,102488.56
2023-03-04T10:51:50.058Z,102482.81
2023-03-04T10:54:43.925Z,102478.00
2023-03-04T10:57:36.315Z,102483.66
2023-03-04T11:00:31.988Z,102477.28
2023-03-04T11:03:29.207Z,102476.31
2023-03-04T11:06:21.070Z,102473.72
2023-03-04T11:09:23.140Z,102482.34
2023-03-04T11:12:13.065Z,102479.59
2023-03-04T11:14:59.913Z,102486.38
2023-03-04T11:17:51.220Z,102490.63
2023-03-04T11:20:40.480Z,102484.00
2023-03-04T11:23:36.140Z,102471.88
2023-03-04T11:26:29.807Z,102479.00
2023-03-04T11:29:19.345Z,102474.38
2023-03-04T11:32:12.828Z,102467.41
2023-03-04T11:35:07.665Z,102452.59
2023-03-04T11:38:03.517Z,102441.13
2023-03-04T11:40:55.117Z,102434.00
2023-03-04T11:43:45.689Z,102430.09
2023-03-04T11:46:52.545Z,102443.00
2023-03-04T11:50:01.131Z,102438.06
2023-03-04T11:53:24.422Z,102444.31
2023-03-04T11:56:37.071Z,102456.50
2023-03-04T11:59:50.966Z,102459.31
2023-03-04T12:02:46.678Z,102448.09
2023-03-04T12:05:44.765Z,102447.09
2023-03-04T12:09:00.126Z,102440.34
2023-03-04T12:11:58.083Z,102425.66
2023-03-04T12:14:51.309Z,102417.13
2023-03-04T12:18:09.788Z,102410.13
2023-03-04T12:21:15.218Z,102394.88
2023-03-04T12:24:23.721Z,102392.53
2023-03-04T12:27:21.866Z,102386.75
2023-03-04T12:30:21.198Z,102382.28
2023-03-04T12:33:21.269Z,102386.91
2023-03-04T12:36:18.643Z,102386.16
2023-03-04T12:39:20.527Z,102384.16
2023-03-04T12:42:19.543Z,102391.13
2023-03-04T12:45:21.345Z,102405.31
2023-03-04T12:48:17.277Z,102407.03
2023-03-04T12:51:26.500Z,102407.97
2023-03-04T12:54:26.055Z,102401.66
2023-03-04T12:57:15.077Z,102395.44
2023-03-04T13:00:17.906Z,102395.28
2023-03-04T13:03:11.948Z,102379.19
2023-03-04T13:06:10.226Z,102370.38
2023-03-04T13:09:03.438Z,102362.81
2023-03-04T13:11:55.906Z,102354.28
2023-03-04T13:15:27.737Z,102347.41
2023-03-04T13:18:32.734Z,102346.69
2023-03-04T13:21:24.816Z,102340.38
2023-03-04T13:24:45.842Z,102337.63
2023-03-04T13:27:49.964Z,102347.84
2023-03-04T13:30:44.707Z,102320.59
2023-03-04T13:34:02.947Z,102328.56
2023-03-04T13:36:59.206Z,102331.19
2023-03-04T13:39:45.875Z,102334.78
2023-03-04T13:42:43.576Z,102340.34
2023-03-04T13:45:32.844Z,102342.16
2023-03-04T13:48:31.322Z,102334.81
2023-03-04T13:51:28.875Z,102337.19
2023-03-04T13:54:18.535Z,102333.88
2023-03-04T13:57:22.364Z,102336.72
2023-03-04T14:00:14.331Z,102334.06
2023-03-04T14:03:14.720Z,102333.44
2023-03-04T14:06:12.335Z,102338.47
2023-03-04T14:08:59.273Z,102333.44
2023-03-04T14:11:45.623Z,102322.66
2023-03-04T14:14:37.735Z,102333.59
2023-03-04T14:17:28.159Z,102330.00
2023-03-04T14:20:25.780Z,102343.22
2023-03-04T14:23:27.554Z,102340.84
2023-03-04T14:26:16.130Z,102332.03
2023-03-04T14:29:02.959Z,102330.59
2023-03-04T14:31:49.946Z,102341.84
2023-03-04T14:34:38.781Z,102340.38
2023-03-04T14:37:27.855Z,102334.94
2023-03-04T14:40:23.171Z,102329.78
2023-03-04T14:43:14.351Z,102331.22
2023-03-04T14:46:03.504Z,102327.69
2023-03-04T14:48:52.529Z,102323.09
2023-03-04T14:51:45.953Z,102320.47
2023-03-04T14:54:36.073Z,102316.78
2023-03-04T14:57:26.739Z,102307.78
2023-03-04T15:00:17.056Z,102321.47
2023-03-04T15:03:07.303Z,102318.91
2023-03-04T15:05:55.680Z,102313.25
2023-03-04T15:08:43.042Z,102309.63
2023-03-04T15:11:31.836Z,102318.22
2023-03-04T15:14:43.990Z,102313.25
2023-03-04T15:17:37.585Z,102313.25
2023-03-04T15:20:27.645Z,102309.75
2023-03-04T15:23:14.765Z,102306.44
2023-03-04T15:26:03.110Z,102315.56
2023-03-04T15:28:49.562Z,102318.63
2023-03-04T15:31:37.206Z,102316.72
2023-03-04T15:34:23.252Z,102318.97
2023-03-04T15:37:19.392Z,102316.56
2023-03-04T15:40:13.810Z,102303.34
2023-03-04T15:43:02.762Z,102306.91
2023-03-04T15:45:51.163Z,102300.41
2023-03-04T15:48:38.798Z,102299.44
2023-03-04T15:51:30.068Z,102294.06
2023-03-04T15:54:18.314Z,102294.53
2023-03-04T15:57:09.159Z,102299.78
2023-03-04T15:59:55.637Z,102299.38
2023-03-04T16:02:42.362Z,102296.19
2023-03-04T16:05:30.056Z,102298.78
2023-03-04T16:08:19.212Z,102294.09
2023-03-04T16:11:06.035Z,102292.78
2023-03-04T16:13:53.198Z,102295.72
2023-03-04T16:16:39.634Z,102297.53
2023-03-04T16:19:25.843Z,102285.06
2023-03-04T16:22:16.041Z,102293.53
2023-03-04T16:25:02.274Z,102288.16
2023-03-04T16:27:48.933Z,102283.16
2023-03-04T16:30:35.598Z,102275.69
2023-03-04T16:33:21.949Z,102277.03
2023-03-04T16:36:15.337Z,102282.41
2023-03-04T16:39:09.141Z,102278.38
2023-03-04T16:41:55.919Z,102274.22
2023-03-04T16:44:42.236Z,102278.16
2023-03-04T16:47:28.803Z,102286.81
2023-03-04T16:50:16.416Z,102288.66
2023-03-04T16:53:02.626Z,102278.88
2023-03-04T16:55:50.353Z,102282.28
2023-03-04T16:58:37.058Z,102276.31
2023-03-04T17:01:25.881Z,102281.56
2023-03-04T17:04:12.760Z,102280.81
2023-03-04T17:06:58.994Z,102277.75
2023-03-04T17:09:45.490Z,102286.94
2023-03-04T17:12:33.615Z,102277.66
2023-03-04T17:15:20.707Z,102282.91
2023-03-04T17:18:06.864Z,102280.59
2023-03-04T17:20:53.421Z,102286.72
2023-03-04T17:23:39.940Z,102279.59
2023-03-04T17:26:26.360Z,102286.72
2023-03-04T17:29:14.184Z,102290.66
2023-03-04T17:32:00.555Z,102300.66
2023-03-04T17:34:47.012Z,102303.50
2023-03-04T17:37:33.328Z,102298.13
2023-03-04T17:40:19.998Z,102307.03
2023-03-04T17:43:11.291Z,102301.03
2023-03-04T17:46:07.559Z,102312.16
2023-03-04T17:48:56.051Z,102320.47
2023-03-04T17:51:43.879Z,102315.38
2023-03-04T17:54:30.147Z,102313.41
2023-03-04T17:57:16.805Z,102326.38
2023-03-04T18:00:03.798Z,102324.28
2023-03-04T18:02:52.061Z,102320.88
2023-03-04T18:05:38.457Z,102321.72
2023-03-04T18:08:25.701Z,102326.59
2023-03-04T18:11:12.754Z,102328.34
2023-03-04T18:13:59.161Z,102331.13
2023-03-04T18:16:45.656Z,102333.22
2023-03-04T18:19:33.534Z,102334.91
2023-03-04T18:22:19.656Z,102335.19
2023-03-04T18:25:07.038Z,102333.22
2023-03-04T18:27:53.685Z,102338.34
2023-03-04T18:30:39.964Z,102331.38
2023-03-04T18:33:26.624Z,102329.44
2023-03-04T18:36:14.867Z,102332.97
2023-03-04T18:39:02.259Z,102331.97
2023-03-04T18:41:48.674Z,102337.00
2023-03-04T18:44:34.966Z,102333.69
2023-03-04T18:47:22.383Z,102328.56
2023-03-04T18:50:09.999Z,102327.72
2023-03-04T18:52:57.826Z,102324.41
2023-03-04T18:55:44.435Z,102328.56
2023-03-04T18:58:34.834Z,102328.31
2023-03-04T19:01:23.400Z,102325.63
2023-03-04T19:04:09.755Z,102327.44
2023-03-04T19:06:56.528Z,102322.44
2023-03-04T19:09:44.188Z,102322.91
2023-03-04T19:12:30.808Z,102316.56
2023-03-04T19:15:18.147Z,102324.88
2023-03-04T19:18:05.398Z,102323.41
2023-03-04T19:20:51.565Z,102309.97
2023-03-04T19:23:37.736Z,102307.41
2023-03-04T19:26:25.713Z,102310.19
2023-03-04T19:29:12.169Z,102307.63
2023-03-04T19:31:58.713Z,102306.41
2023-03-04T19:34:45.584Z,102314.13
2023-03-04T19:37:31.919Z,102310.53
2023-03-04T19:40:18.528Z,102304.50
2023-03-04T19:43:06.239Z,102306.47
2023-03-04T19:45:56.886Z,102299.50
2023-03-04T19:48:44.967Z,102306.56
2023-03-04T19:51:32.636Z,102304.00
2023-03-04T19:54:19.046Z,102296.31
2023-03-04T19:57:05.362Z,102297.16
2023-03-04T19:59:53.110Z,102298.97
2023-03-04T20:02:39.986Z,102300.91
2023-03-04T20:05:26.729Z,102298.72
2023-03-04T20:08:13.558Z,102298.56
2023-03-04T20:11:00.245Z,102293.34
2023-03-04T20:13:46.509Z,102299.84
2023-03-04T20:16:35.319Z,102303.59
2023-03-04T20:19:21.799Z,102305.22
2023-03-04T20:22:08.797Z,102305.31
2023-03-04T20:24:55.470Z,102308.00
2023-03-04T20:27:41.845Z,102308.00
2023-03-04T20:30:28.715Z,102309.06
2023-03-04T20:33:16.571Z,102308.44
2023-03-04T20:36:03.113Z,102311.50
2023-03-04T20:38:57.967Z,102313.91
2023-03-04T20:41:48.781Z,102306.69
2023-03-04T20:44:35.878Z,102314.75
2023-03-04T20:47:22.103Z,102302.06
2023-03-04T20:50:11.297Z,102299.50
2023-03-04T20:52:57.750Z,102302.94
2023-03-04T20:55:44.179Z,102295.84
2023-03-04T20:58:30.676Z,102296.69
2023-03-04T21:01:17.140Z,102295.22
2023-03-04T21:04:04.573Z,102290.31
2023-03-04T21:06:53.494Z,102299.84
2023-03-04T21:09:39.663Z,102285.56
2023-03-04T21:12:25.942Z,102284.94
2023-03-04T21:15:12.770Z,102283.13
2023-03-04T21:17:59.597Z,102280.56
2023-03-04T21:20:48.442Z,102278.94
2023-03-04T21:23:38.462Z,102274.44
2023-03-04T21:26:25.646Z,102281.72
2023-03-04T21:29:12.556Z,102273.56
2023-03-04T21:32:20.787Z,102271.88
2023-03-04T21:35:15.202Z,102263.72
2023-03-04T21:38:01.768Z,102262.59
2023-03-04T21:40:49.276Z,102274.34
2023-03-04T21:43:35.906Z,102269.31
2023-03-04T21:46:23.301Z,102267.84
2023-03-04T21:49:14.137Z,102268.16
2023-03-04T21:52:00.270Z,102266.09
2023-03-04T21:54:47.723Z,102258.28
2023-03-04T21:57:35.795Z,102267.06
2023-03-04T22:00:22.872Z,102256.44
2023-03-04T22:03:09.329Z,102259.38
2023-03-04T22:05:59.249Z,102252.63
2023-03-04T22:08:46.002Z,102251.38
2023-03-04T22:11:33.161Z,102251.25
2023-03-04T22:14:20.956Z,102256.00
2023-03-04T22:17:07.806Z,102261.06
2023-03-04T22:19:55.042Z,102251.88
2023-03-04T22:22:41.573Z,102252.56
2023-03-04T22:25:28.586Z,102251.50
2023-03-04T22:28:14.956Z,102243.50
2023-03-04T22:31:02.889Z,102238.72
2023-03-04T22:33:49.473Z,102240.78
2023-03-04T22:36:37.603Z,102243.19
2023-03-04T22:39:23.847Z,102240.41
2023-03-04T22:42:11.482Z,102240.00
2023-03-04T22:44:57.884Z,102242.41
2023-03-04T22:47:49.626Z,102240.38
2023-03-04T22:50:36.511Z,102239.53
2023-03-04T22:53:25.589Z,102238.88
2023-03-04T22:56:13.865Z,102239.75
2023-03-04T22:59:00.906Z,102234.84
2023-03-04T23:01:47.011Z,102234.31
2023-03-04T23:04:34.884Z,102230.44
2023-03-04T23:07:21.554Z,102229.59
2023-03-04T23:10:10.839Z,102215.53
2023-03-04T23:12:57.195Z,102218.84
2023-03-04T23:15:43.798Z,102213.50
2023-03-04T23:18:30.031Z,102205.56
2023-03-04T23:21:20.078Z,102206.66
2023-03-04T23:24:08.260Z,102201.41
2023-03-04T23:26:54.641Z,102205.16
2023-03-04T23:29:41.429Z,102195.53
2023-03-04T23:32:27.708Z,102194.25
2023-03-04T23:35:14.197Z,102187.81
2023-03-04T23:38:01.881Z,102188.78
2023-03-04T23:40:48.523Z,102181.38
2023-03-04T23:43:34.948Z,102175.50
2023-03-04T23:46:21.834Z,102173.97
2023-03-04T23:49:09.309Z,102175.56
2023-03-04T23:51:55.537Z,102166.44
2023-03-04T23:54:43.177Z,102168.72
2023-03-04T23:57:29.430Z,102173.97
